Time;durP1;ratioP1;P1;durP2;ratioP2;P2;SDS_P1;SDS_P2;PMS_P1;PMS_P2;Temp;Humidity;BMP_temperature;BMP_pressure;BME280_temperature;BME280_humidity;BME280_pressure;Samples;Min_cycle;Max_cycle;Signal;HPM_P1;HPM_P2
2021/11/25 00:02:07;;;;;;;45.57;22.13;;;4.70;99.90;;;;;;4437163;32;20182;-66
2021/11/25 00:04:35;;;;;;;45.20;22.50;;;4.70;99.90;;;;;;4436480;32;20198;-66
2021/11/25 00:07:03;;;;;;;44.83;23.13;;;4.70;99.90;;;;;;4437412;32;20183;-66
2021/11/25 00:09:30;;;;;;;44.93;22.50;;;4.70;99.90;;;;;;4439000;32;20542;-65
2021/11/25 00:11:57;;;;;;;44.30;21.97;;;4.70;99.90;;;;;;4439291;32;20180;-65
2021/11/25 00:14:24;;;;;;;48.60;22.97;;;4.70;99.90;;;;;;4439967;32;20201;-65
2021/11/25 00:16:51;;;;;;;44.10;22.07;;;4.70;99.90;;;;;;4441034;32;20193;-66
2021/11/25 00:19:18;;;;;;;40.13;22.20;;;4.70;99.90;;;;;;4439685;32;20174;-65
2021/11/25 00:21:45;;;;;;;44.63;22.30;;;4.70;99.90;;;;;;4439820;32;20229;-65
2021/11/25 00:24:12;;;;;;;43.80;22.50;;;4.70;99.90;;;;;;4439420;32;20202;-65
2021/11/25 00:26:39;;;;;;;44.43;21.50;;;4.70;99.90;;;;;;4439163;32;20245;-65
2021/11/25 00:29:06;;;;;;;43.13;21.63;;;4.70;99.90;;;;;;4427367;32;20243;-65
2021/11/25 00:31:33;;;;;;;41.80;21.57;;;4.60;99.90;;;;;;4440506;32;20201;-65
2021/11/25 00:34:01;;;;;;;39.70;21.17;;;4.70;99.90;;;;;;4439303;32;20178;-65
2021/11/25 00:36:28;;;;;;;43.87;22.03;;;4.70;99.90;;;;;;4439369;32;20243;-65
2021/11/25 00:38:55;;;;;;;41.63;21.00;;;4.70;99.90;;;;;;4439951;32;20178;-65
2021/11/25 00:41:22;;;;;;;39.37;20.77;;;4.70;99.90;;;;;;4438597;32;20237;-65
2021/11/25 00:43:49;;;;;;;41.13;21.43;;;4.70;99.90;;;;;;4429950;32;20210;-67
2021/11/25 00:46:16;;;;;;;40.03;20.73;;;4.70;99.90;;;;;;4440304;32;20241;-65
2021/11/25 00:48:43;;;;;;;37.00;19.93;;;4.70;99.90;;;;;;4439191;32;20180;-65
2021/11/25 00:51:11;;;;;;;39.97;21.13;;;4.60;99.90;;;;;;4438671;32;20219;-66
2021/11/25 00:53:37;;;;;;;39.20;20.63;;;4.60;99.90;;;;;;4440535;32;20216;-65
2021/11/25 00:56:05;;;;;;;40.07;20.97;;;4.60;99.90;;;;;;4440602;32;20287;-65
2021/11/25 00:58:32;;;;;;;41.73;20.40;;;4.60;99.90;;;;;;4440256;32;20251;-65
2021/11/25 01:00:59;;;;;;;40.73;20.03;;;4.60;99.90;;;;;;4440086;32;20225;-65
2021/11/25 01:03:26;;;;;;;39.70;19.77;;;4.70;99.90;;;;;;4438590;32;20217;-65
2021/11/25 01:05:53;;;;;;;40.63;19.70;;;4.70;99.90;;;;;;4423140;32;20206;-65
2021/11/25 01:08:20;;;;;;;38.97;19.87;;;4.70;99.90;;;;;;4423422;32;20268;-65
2021/11/25 01:10:47;;;;;;;38.27;19.33;;;4.60;99.90;;;;;;4423629;32;20563;-65
2021/11/25 01:13:15;;;;;;;40.13;20.07;;;4.60;99.90;;;;;;4423751;32;20512;-65
2021/11/25 01:15:42;;;;;;;39.43;20.70;;;4.60;99.90;;;;;;4424606;32;20544;-65
2021/11/25 01:18:11;;;;;;;39.03;20.03;;;4.60;99.90;;;;;;4424328;32;20246;-65
2021/11/25 01:20:40;;;;;;;39.23;20.27;;;4.60;99.90;;;;;;4425315;32;20172;-65
2021/11/25 01:23:11;;;;;;;39.80;20.83;;;4.60;99.90;;;;;;4422668;32;20172;-65
2021/11/25 01:25:39;;;;;;;36.63;19.03;;;4.60;99.90;;;;;;4424540;32;20559;-65
2021/11/25 01:28:12;;;;;;;37.50;18.83;;;4.70;99.90;;;;;;4425420;32;20211;-65
2021/11/25 01:30:45;;;;;;;41.00;19.73;;;4.70;99.90;;;;;;4423415;32;20189;-65
2021/11/25 01:33:12;;;;;;;36.93;19.03;;;4.70;99.90;;;;;;4424733;32;20186;-65
2021/11/25 01:35:40;;;;;;;38.97;19.37;;;4.60;99.90;;;;;;4423932;32;20182;-65
2021/11/25 01:38:07;;;;;;;39.17;19.63;;;4.60;99.90;;;;;;4422558;32;20223;-66
2021/11/25 01:40:36;;;;;;;38.70;19.73;;;4.60;99.90;;;;;;4422801;32;20496;-66
2021/11/25 01:43:04;;;;;;;36.80;19.20;;;4.70;99.90;;;;;;4424300;32;20196;-65
2021/11/25 01:45:31;;;;;;;35.93;18.93;;;4.70;99.90;;;;;;4422675;32;20180;-65
2021/11/25 01:47:59;;;;;;;36.63;18.63;;;4.70;99.90;;;;;;4424285;32;20199;-65
2021/11/25 01:50:27;;;;;;;38.33;18.70;;;4.70;99.90;;;;;;4423067;32;20483;-65
2021/11/25 01:52:55;;;;;;;33.27;17.57;;;4.70;99.90;;;;;;4424387;32;20246;-65
2021/11/25 01:55:23;;;;;;;32.03;18.07;;;4.70;99.90;;;;;;4424150;32;20556;-65
2021/11/25 01:57:51;;;;;;;34.47;17.97;;;4.70;99.90;;;;;;4422191;32;20257;-65
2021/11/25 02:00:23;;;;;;;36.87;18.30;;;4.70;99.90;;;;;;4422886;32;20537;-66
2021/11/25 02:02:53;;;;;;;33.87;17.57;;;4.70;99.90;;;;;;4422536;32;20179;-65
2021/11/25 02:05:20;;;;;;;36.63;18.30;;;4.70;99.90;;;;;;4423935;32;20496;-65
2021/11/25 02:07:47;;;;;;;35.23;17.50;;;4.70;99.90;;;;;;4424429;32;20197;-65
2021/11/25 02:10:15;;;;;;;32.80;17.43;;;4.70;99.90;;;;;;4423968;32;20173;-65
2021/11/25 02:12:42;;;;;;;40.40;17.83;;;4.70;99.90;;;;;;4421827;32;20183;-66
2021/11/25 02:15:11;;;;;;;33.37;17.50;;;4.80;99.90;;;;;;4422642;32;20196;-65
2021/11/25 02:17:38;;;;;;;33.00;17.23;;;4.80;99.90;;;;;;4422838;32;20183;-66
2021/11/25 02:20:08;;;;;;;33.23;17.47;;;4.80;99.90;;;;;;4423960;32;20143;-66
2021/11/25 02:22:37;;;;;;;35.67;18.00;;;4.70;99.90;;;;;;4423959;32;20151;-66
2021/11/25 02:25:07;;;;;;;33.97;17.97;;;4.80;99.90;;;;;;4423726;32;20180;-66
2021/11/25 02:27:34;;;;;;;35.60;17.90;;;4.80;99.90;;;;;;4422025;32;20169;-66
2021/11/25 02:30:02;;;;;;;36.43;18.47;;;4.70;99.90;;;;;;4423458;32;20172;-65
2021/11/25 02:32:38;;;;;;;36.77;19.60;;;4.80;99.90;;;;;;4422323;32;20245;-65
2021/11/25 02:35:10;;;;;;;39.83;19.10;;;4.80;99.90;;;;;;4424329;32;20144;-65
2021/11/25 02:37:38;;;;;;;37.90;19.47;;;4.70;99.90;;;;;;4421991;32;20544;-65
2021/11/25 02:40:30;;;;;;;39.10;20.13;;;4.70;99.90;;;;;;4422074;32;20211;-65
2021/11/25 02:43:01;;;;;;;38.70;19.63;;;4.70;99.90;;;;;;4422686;32;20230;-65
2021/11/25 02:45:29;;;;;;;38.43;19.17;;;4.70;99.90;;;;;;4423871;32;20433;-65
2021/11/25 02:47:57;;;;;;;33.80;19.03;;;4.80;99.90;;;;;;4423440;32;20542;-65
2021/11/25 02:50:25;;;;;;;39.77;19.77;;;4.80;99.90;;;;;;4422384;32;20190;-66
2021/11/25 02:52:52;;;;;;;37.67;19.53;;;4.80;99.90;;;;;;4410928;32;20194;-65
2021/11/25 02:55:19;;;;;;;42.47;20.30;;;4.70;99.90;;;;;;4422158;32;20180;-67
2021/11/25 02:57:47;;;;;;;39.77;20.33;;;4.80;99.90;;;;;;4421846;32;20198;-66
2021/11/25 03:00:20;;;;;;;37.37;20.43;;;4.80;99.90;;;;;;4422389;32;20183;-66
2021/11/25 03:02:54;;;;;;;40.50;20.27;;;4.80;99.90;;;;;;4423136;32;20206;-65
2021/11/25 03:05:21;;;;;;;40.37;20.00;;;4.70;99.90;;;;;;4421724;32;20184;-65
2021/11/25 03:07:49;;;;;;;38.80;20.50;;;4.70;99.90;;;;;;4423055;32;20194;-65
2021/11/25 03:10:16;;;;;;;37.30;20.77;;;4.70;99.90;;;;;;4423137;32;20202;-66
2021/11/25 03:12:43;;;;;;;40.57;20.80;;;4.70;99.90;;;;;;4421807;32;20182;-65
2021/11/25 03:15:10;;;;;;;42.77;21.60;;;4.70;99.90;;;;;;4421785;32;20179;-65
2021/11/25 03:17:38;;;;;;;40.73;20.67;;;4.60;99.90;;;;;;4422185;32;20229;-65
2021/11/25 03:20:07;;;;;;;41.97;20.97;;;4.60;99.90;;;;;;4421387;32;20213;-66
2021/11/25 03:22:34;;;;;;;41.60;21.40;;;4.70;99.90;;;;;;4422462;32;20183;-65
2021/11/25 03:25:01;;;;;;;43.13;22.17;;;4.60;99.90;;;;;;4422472;32;20222;-66
2021/11/25 03:27:28;;;;;;;45.13;22.60;;;4.70;99.90;;;;;;4421523;32;20206;-65
2021/11/25 03:29:55;;;;;;;43.83;22.87;;;4.70;99.90;;;;;;4421569;32;20198;-65
2021/11/25 03:32:22;;;;;;;42.60;22.10;;;4.60;99.90;;;;;;4421236;32;20551;-65
2021/11/25 03:34:49;;;;;;;42.37;22.43;;;4.60;99.90;;;;;;4422144;32;20188;-66
2021/11/25 03:37:16;;;;;;;46.50;22.17;;;4.60;99.90;;;;;;4421433;32;20624;-66
2021/11/25 03:39:43;;;;;;;42.60;22.33;;;4.60;99.90;;;;;;4421999;32;20199;-66
2021/11/25 03:42:10;;;;;;;43.93;23.43;;;4.60;99.90;;;;;;4423122;32;20215;-65
2021/11/25 03:44:40;;;;;;;45.57;22.40;;;4.60;99.90;;;;;;4425747;32;20413;-65
2021/11/25 03:47:07;;;;;;;46.00;23.33;;;4.60;99.90;;;;;;4426164;32;20251;-66
2021/11/25 03:49:34;;;;;;;44.30;23.50;;;4.60;99.90;;;;;;4426014;32;20220;-66
2021/11/25 03:52:01;;;;;;;42.33;21.50;;;4.60;99.90;;;;;;4426032;32;20614;-65
2021/11/25 03:54:28;;;;;;;45.77;22.27;;;4.60;99.90;;;;;;4425362;32;20183;-66
2021/11/25 03:56:55;;;;;;;44.83;22.37;;;4.60;99.90;;;;;;4427117;32;20185;-66
2021/11/25 03:59:22;;;;;;;43.17;22.50;;;4.70;99.90;;;;;;4424502;32;20179;-65
2021/11/25 04:01:49;;;;;;;43.03;23.83;;;4.60;99.90;;;;;;4424090;32;20195;-65
2021/11/25 04:04:16;;;;;;;41.93;22.43;;;4.60;99.90;;;;;;4426040;32;20227;-66
2021/11/25 04:06:43;;;;;;;43.83;21.83;;;4.60;99.90;;;;;;4426215;32;20168;-66
2021/11/25 04:09:11;;;;;;;47.23;22.37;;;4.60;99.90;;;;;;4426026;32;20290;-65
2021/11/25 04:11:38;;;;;;;42.90;23.47;;;4.50;99.90;;;;;;4424918;32;20181;-66
2021/11/25 04:14:05;;;;;;;43.47;22.37;;;4.50;99.90;;;;;;4424119;32;20196;-65
2021/11/25 04:16:32;;;;;;;43.37;22.63;;;4.50;99.90;;;;;;4424330;32;20501;-66
2021/11/25 04:18:59;;;;;;;42.10;22.90;;;4.50;99.90;;;;;;4423963;32;20185;-65
2021/11/25 04:21:26;;;;;;;41.43;22.63;;;4.40;99.90;;;;;;4424340;32;20186;-66
2021/11/25 04:23:53;;;;;;;44.93;23.37;;;4.50;99.90;;;;;;4425819;32;20454;-66
2021/11/25 04:26:20;;;;;;;44.57;22.53;;;4.50;99.90;;;;;;4425542;32;20233;-66
2021/11/25 04:28:47;;;;;;;40.33;22.13;;;4.50;99.90;;;;;;4423923;32;20217;-65
2021/11/25 04:36:46;;;;;;;45.47;22.60;;;4.40;99.90;;;;;;4424983;32;20244;-66
2021/11/25 04:39:13;;;;;;;42.73;21.70;;;4.40;99.90;;;;;;4423647;32;20175;-66
2021/11/25 04:41:41;;;;;;;44.00;22.23;;;4.40;99.90;;;;;;4425118;32;20619;-66
2021/11/25 04:44:08;;;;;;;40.13;22.37;;;4.30;99.90;;;;;;4425349;32;20175;-65
2021/11/25 04:46:35;;;;;;;41.43;21.00;;;4.30;99.90;;;;;;4425280;32;20230;-65
2021/11/25 04:49:04;;;;;;;42.60;22.40;;;4.20;99.90;;;;;;4424496;32;20182;-65
2021/11/25 04:51:32;;;;;;;42.07;22.00;;;4.10;99.90;;;;;;4425035;32;20205;-66
2021/11/25 04:53:59;;;;;;;41.23;21.83;;;4.10;99.90;;;;;;4422837;32;20230;-65
2021/11/25 04:56:26;;;;;;;42.37;21.90;;;4.20;99.90;;;;;;4423389;32;20528;-65
2021/11/25 04:58:53;;;;;;;40.93;21.03;;;4.10;99.90;;;;;;4425479;32;20188;-66
2021/11/25 05:01:20;;;;;;;41.17;21.53;;;4.10;99.90;;;;;;4424441;32;20590;-65
2021/11/25 05:03:47;;;;;;;37.90;20.70;;;4.10;99.90;;;;;;4424430;32;20179;-66
2021/11/25 05:06:15;;;;;;;38.73;20.73;;;4.00;99.90;;;;;;4423231;32;20179;-65
2021/11/25 05:08:42;;;;;;;38.50;19.37;;;4.00;99.90;;;;;;4424895;32;20648;-65
2021/11/25 05:11:10;;;;;;;37.17;19.70;;;4.00;99.90;;;;;;4423707;32;20199;-66
2021/11/25 05:13:37;;;;;;;41.63;20.07;;;4.00;99.90;;;;;;4424830;32;20194;-66
2021/11/25 05:16:04;;;;;;;36.93;19.30;;;4.00;99.90;;;;;;4424404;32;20607;-65
2021/11/25 05:18:31;;;;;;;36.97;20.20;;;4.00;99.90;;;;;;4423127;32;20701;-66
2021/11/25 05:20:59;;;;;;;39.70;20.00;;;4.00;99.90;;;;;;4423620;32;20233;-65
2021/11/25 05:23:27;;;;;;;39.07;20.30;;;3.90;99.90;;;;;;4422952;32;20234;-66
2021/11/25 05:25:54;;;;;;;40.60;20.80;;;3.90;99.90;;;;;;4424029;32;20216;-65
2021/11/25 05:28:21;;;;;;;37.43;20.00;;;3.90;99.90;;;;;;4424612;32;20197;-65
2021/11/25 05:30:48;;;;;;;36.83;20.37;;;3.90;99.90;;;;;;4423238;32;20508;-67
2021/11/25 05:33:16;;;;;;;37.53;20.47;;;3.90;99.90;;;;;;4422895;32;20226;-66
2021/11/25 05:35:44;;;;;;;39.77;20.07;;;3.80;99.90;;;;;;4422927;32;20228;-66
2021/11/25 05:38:11;;;;;;;40.03;20.70;;;3.70;99.90;;;;;;4423127;32;20183;-65
2021/11/25 05:40:38;;;;;;;42.10;19.73;;;3.70;99.90;;;;;;4423387;32;20189;-65
2021/11/25 05:43:05;;;;;;;41.23;21.40;;;3.60;99.90;;;;;;4424403;32;20175;-65
2021/11/25 05:45:32;;;;;;;38.73;20.93;;;3.60;99.90;;;;;;4424470;32;20206;-66
2021/11/25 05:47:59;;;;;;;38.00;20.20;;;3.40;99.90;;;;;;4424578;32;20223;-65
2021/11/25 05:50:27;;;;;;;38.87;20.73;;;3.40;99.90;;;;;;4425371;32;20151;-65
2021/11/25 05:52:56;;;;;;;38.20;20.37;;;3.30;99.90;;;;;;4425684;32;20159;-66
2021/11/25 05:55:27;;;;;;;38.90;19.67;;;3.30;99.90;;;;;;4422461;32;20225;-65
2021/11/25 05:57:55;;;;;;;38.27;20.00;;;3.30;99.90;;;;;;4424090;32;20171;-65
2021/11/25 06:00:22;;;;;;;40.73;20.83;;;3.30;99.90;;;;;;4424680;32;20218;-65
2021/11/25 06:02:49;;;;;;;40.97;21.87;;;3.10;99.90;;;;;;4424317;32;20182;-65
2021/11/25 06:05:23;;;;;;;38.40;20.73;;;3.10;99.90;;;;;;4423476;32;20504;-65
2021/11/25 06:07:51;;;;;;;38.57;20.37;;;3.00;99.90;;;;;;4424473;32;20533;-65
2021/11/25 06:10:20;;;;;;;38.60;20.67;;;2.90;99.90;;;;;;4424041;32;20194;-65
2021/11/25 06:12:48;;;;;;;41.27;21.40;;;2.90;99.90;;;;;;4411245;32;20581;-65
2021/11/25 06:15:16;;;;;;;37.77;20.40;;;2.80;99.90;;;;;;4424092;32;20159;-65
2021/11/25 06:17:43;;;;;;;40.90;20.60;;;2.80;99.90;;;;;;4423947;32;20183;-65
2021/11/25 06:20:12;;;;;;;40.53;20.77;;;2.70;99.90;;;;;;4423070;32;20197;-65
2021/11/25 06:22:42;;;;;;;37.97;19.70;;;2.80;99.90;;;;;;4436630;32;20150;-65
2021/11/25 06:25:12;;;;;;;39.40;20.90;;;2.80;99.90;;;;;;4439310;32;20420;-66
2021/11/25 06:27:39;;;;;;;37.20;19.80;;;2.80;99.90;;;;;;4437802;32;20243;-65
2021/11/25 06:30:12;;;;;;;40.67;20.87;;;2.80;99.90;;;;;;4438441;32;20420;-65
2021/11/25 06:32:40;;;;;;;39.97;20.47;;;2.90;99.90;;;;;;4437561;32;20171;-65
2021/11/25 06:35:10;;;;;;;40.40;20.53;;;2.90;99.90;;;;;;4438870;32;20534;-65
2021/11/25 06:37:38;;;;;;;41.70;21.27;;;2.90;99.90;;;;;;4437853;32;20260;-65
2021/11/25 06:40:08;;;;;;;39.77;20.70;;;2.90;99.90;;;;;;4438553;32;20173;-65
2021/11/25 06:42:35;;;;;;;39.67;20.77;;;2.90;99.90;;;;;;4438913;32;20190;-66
2021/11/25 06:45:04;;;;;;;42.77;20.93;;;2.90;99.90;;;;;;4438977;32;20483;-65
2021/11/25 06:47:31;;;;;;;40.10;20.50;;;2.90;99.90;;;;;;4439194;32;20434;-65
2021/11/25 06:49:59;;;;;;;44.20;21.40;;;2.90;99.90;;;;;;4439734;32;20567;-65
2021/11/25 06:52:25;;;;;;;43.30;21.00;;;2.90;99.90;;;;;;4437134;32;20486;-65
2021/11/25 06:54:52;;;;;;;37.80;19.90;;;2.90;99.90;;;;;;4436860;32;20182;-66
2021/11/25 06:57:19;;;;;;;43.40;20.63;;;2.90;99.90;;;;;;4437622;32;20179;-65
2021/11/25 06:59:46;;;;;;;38.03;19.67;;;2.90;99.90;;;;;;4440661;32;20146;-65
2021/11/25 07:02:13;;;;;;;37.90;20.03;;;2.90;99.90;;;;;;4438829;32;20245;-65
2021/11/25 07:04:41;;;;;;;36.80;20.50;;;2.90;99.90;;;;;;4438317;32;20532;-65
2021/11/25 07:07:08;;;;;;;42.47;20.70;;;2.80;99.90;;;;;;4440730;32;20147;-65
2021/11/25 07:09:35;;;;;;;42.23;20.97;;;2.90;99.90;;;;;;4439285;32;20388;-66
2021/11/25 07:12:03;;;;;;;41.93;21.27;;;2.80;99.90;;;;;;4438621;32;20201;-66
2021/11/25 07:14:30;;;;;;;38.57;20.53;;;2.80;99.90;;;;;;4438449;32;20151;-66
2021/11/25 07:16:57;;;;;;;43.30;20.90;;;2.70;99.90;;;;;;4438271;32;20497;-65
2021/11/25 07:19:24;;;;;;;43.00;22.03;;;2.70;99.90;;;;;;4441805;32;20169;-65
2021/11/25 07:21:51;;;;;;;42.10;20.87;;;2.80;99.90;;;;;;4440445;32;20198;-66
2021/11/25 07:24:19;;;;;;;43.13;21.27;;;2.80;99.90;;;;;;4441360;32;20499;-66
2021/11/25 07:26:46;;;;;;;44.93;22.00;;;3.10;99.90;;;;;;4441598;32;20197;-65
2021/11/25 07:29:14;;;;;;;42.60;20.93;;;3.40;99.90;;;;;;4441320;32;20197;-65
2021/11/25 07:31:41;;;;;;;38.83;20.40;;;3.60;99.90;;;;;;4440890;32;20201;-65
2021/11/25 07:34:08;;;;;;;40.70;20.33;;;3.70;99.90;;;;;;4441551;32;20373;-65
2021/11/25 07:36:35;;;;;;;44.90;21.17;;;3.70;99.90;;;;;;4439843;32;20269;-65
2021/11/25 07:39:02;;;;;;;36.37;19.77;;;3.70;99.90;;;;;;4440511;32;20189;-66
2021/11/25 07:41:31;;;;;;;36.63;19.37;;;3.90;99.90;;;;;;4439689;32;20216;-66
2021/11/25 07:43:58;;;;;;;37.80;19.73;;;4.10;99.90;;;;;;4440112;32;20190;-65
2021/11/25 07:46:25;;;;;;;34.77;19.43;;;4.20;99.90;;;;;;4441181;32;20143;-65
2021/11/25 07:48:52;;;;;;;38.63;20.47;;;4.20;99.90;;;;;;4441466;32;20465;-65
2021/11/25 07:51:19;;;;;;;41.30;20.57;;;4.30;99.90;;;;;;4440084;32;20175;-65
2021/11/25 07:53:48;;;;;;;38.50;20.17;;;4.30;99.90;;;;;;4440162;32;20183;-66
2021/11/25 07:56:15;;;;;;;36.00;19.00;;;4.30;99.90;;;;;;4439827;32;20163;-66
2021/11/25 07:58:42;;;;;;;37.07;19.33;;;4.40;99.90;;;;;;4439604;32;20278;-66
2021/11/25 08:01:08;;;;;;;37.63;19.30;;;4.40;99.90;;;;;;4439851;32;20201;-66
2021/11/25 08:03:35;;;;;;;37.30;19.17;;;4.40;99.90;;;;;;4441414;32;20218;-66
2021/11/25 08:06:03;;;;;;;36.90;19.17;;;4.70;99.90;;;;;;4441102;32;20514;-66
2021/11/25 08:08:30;;;;;;;36.30;18.40;;;4.90;99.90;;;;;;4439781;32;20205;-65
2021/11/25 08:11:01;;;;;;;37.17;18.93;;;5.00;99.90;;;;;;4439245;32;20194;-65
2021/11/25 08:13:31;;;;;;;33.97;18.10;;;4.90;99.90;;;;;;4439836;32;20239;-65
2021/11/25 08:15:58;;;;;;;33.63;17.83;;;5.00;99.90;;;;;;4439857;32;20194;-65
2021/11/25 08:18:25;;;;;;;35.70;18.90;;;5.20;99.90;;;;;;4441177;32;20182;-65
2021/11/25 08:20:52;;;;;;;35.23;18.67;;;5.30;99.90;;;;;;4439031;32;20190;-65
2021/11/25 08:23:19;;;;;;;33.30;17.70;;;5.40;99.90;;;;;;4438578;32;20548;-66
2021/11/25 08:25:46;;;;;;;35.03;18.03;;;5.50;99.90;;;;;;4440503;32;20173;-66
2021/11/25 08:28:13;;;;;;;34.80;18.23;;;5.70;99.90;;;;;;4438202;32;20186;-65
2021/11/25 08:30:40;;;;;;;36.40;18.37;;;5.80;99.90;;;;;;4441156;32;20434;-65
2021/11/25 08:33:07;;;;;;;36.83;18.27;;;5.80;99.90;;;;;;4438779;32;20186;-65
2021/11/25 08:35:34;;;;;;;33.00;18.50;;;5.50;99.90;;;;;;4439548;32;20235;-65
2021/11/25 08:38:02;;;;;;;35.20;18.20;;;5.20;99.90;;;;;;4439209;32;20564;-65
2021/11/25 08:40:30;;;;;;;35.77;18.57;;;5.10;99.90;;;;;;4440582;32;20444;-65
2021/11/25 08:42:57;;;;;;;33.97;18.07;;;4.90;99.90;;;;;;4439446;32;20423;-65
2021/11/25 08:45:24;;;;;;;36.63;19.00;;;4.70;99.90;;;;;;4439040;32;20234;-65
2021/11/25 08:47:51;;;;;;;36.93;18.67;;;4.60;99.90;;;;;;4439365;32;20197;-66
2021/11/25 08:50:19;;;;;;;35.40;18.50;;;4.50;99.90;;;;;;4440617;32;20139;-65
2021/11/25 08:52:46;;;;;;;37.63;18.80;;;4.40;99.90;;;;;;4439630;32;20167;-66
2021/11/25 08:55:14;;;;;;;36.07;18.17;;;4.40;99.90;;;;;;4438634;32;20233;-66
2021/11/25 08:57:41;;;;;;;40.03;18.73;;;4.30;99.90;;;;;;4440107;32;20193;-65
2021/11/25 09:00:10;;;;;;;35.43;19.27;;;4.20;99.90;;;;;;4438936;32;20194;-65
2021/11/25 09:02:38;;;;;;;36.50;19.17;;;4.10;99.90;;;;;;4438718;32;20205;-65
2021/11/25 09:05:07;;;;;;;34.40;19.20;;;4.00;99.90;;;;;;4440392;32;20413;-66
2021/11/25 09:07:34;;;;;;;34.97;18.23;;;4.10;99.90;;;;;;4439406;32;20503;-66
2021/11/25 09:10:01;;;;;;;37.03;19.23;;;4.10;99.90;;;;;;4440424;32;20239;-65
2021/11/25 09:12:29;;;;;;;38.27;18.80;;;4.10;99.90;;;;;;4426980;32;20197;-66
2021/11/25 09:15:13;;;;;;;37.30;18.37;;;4.20;99.90;;;;;;4437755;32;20181;-66
2021/11/25 09:17:40;;;;;;;37.87;19.03;;;4.10;99.90;;;;;;4438519;32;20205;-65
2021/11/25 09:20:25;;;;;;;37.40;18.97;;;4.00;99.90;;;;;;4439419;32;20151;-66
2021/11/25 09:22:52;;;;;;;40.10;18.67;;;4.10;99.90;;;;;;4439900;32;20600;-66
2021/11/25 09:25:19;;;;;;;35.13;18.30;;;4.00;99.90;;;;;;4439688;32;20377;-66
2021/11/25 09:27:46;;;;;;;38.97;19.60;;;4.00;99.90;;;;;;4438181;32;20200;-65
2021/11/25 09:30:15;;;;;;;36.70;18.83;;;4.00;99.90;;;;;;4439100;32;20206;-66
2021/11/25 09:32:42;;;;;;;34.57;18.40;;;4.00;99.90;;;;;;4438437;32;20206;-66
2021/11/25 09:35:10;;;;;;;37.13;19.07;;;3.90;99.90;;;;;;4438322;32;20198;-66
2021/11/25 09:37:37;;;;;;;35.20;18.37;;;4.00;99.90;;;;;;4425426;32;20216;-66
2021/11/25 09:40:09;;;;;;;37.53;18.40;;;4.10;99.90;;;;;;4439365;32;20200;-65
2021/11/25 09:42:37;;;;;;;34.23;18.00;;;4.20;99.90;;;;;;4438957;32;20238;-65
2021/11/25 09:45:06;;;;;;;34.70;18.03;;;4.10;99.90;;;;;;4437596;32;20200;-66
2021/11/25 09:47:33;;;;;;;33.20;18.17;;;4.10;99.90;;;;;;4439280;32;20205;-65
2021/11/25 09:50:02;;;;;;;33.50;18.27;;;4.20;99.90;;;;;;4438884;32;20182;-65
2021/11/25 09:52:29;;;;;;;37.00;19.23;;;4.20;99.90;;;;;;4438086;32;20201;-66
2021/11/25 09:54:56;;;;;;;34.17;18.23;;;4.30;99.90;;;;;;4438738;32;20224;-66
2021/11/25 09:57:24;;;;;;;35.77;18.83;;;4.30;99.90;;;;;;4437461;32;20174;-66
2021/11/25 09:59:51;;;;;;;37.23;17.87;;;4.30;99.90;;;;;;4439005;32;20419;-68
2021/11/25 10:02:18;;;;;;;36.67;19.00;;;4.40;99.90;;;;;;4439405;32;20166;-65
2021/11/25 10:04:45;;;;;;;34.47;19.17;;;4.40;99.90;;;;;;4438619;32;20212;-65
2021/11/25 10:07:33;;;;;;;38.60;19.37;;;4.40;99.90;;;;;;4439859;32;20181;-65
2021/11/25 10:10:31;;;;;;;35.43;19.37;;;4.30;99.90;;;;;;4437969;32;20413;-65
2021/11/25 10:13:16;;;;;;;37.03;19.43;;;4.30;99.90;;;;;;4364194;32;20250;-65
2021/11/25 10:15:44;;;;;;;38.33;19.60;;;4.30;99.90;;;;;;4364264;32;20179;-65
2021/11/25 10:18:14;;;;;;;37.57;19.80;;;4.30;99.90;;;;;;4363650;32;20523;-66
2021/11/25 10:20:43;;;;;;;35.37;19.43;;;4.40;99.90;;;;;;4363141;32;20221;-66
2021/11/25 10:23:20;;;;;;;37.60;20.17;;;4.50;99.90;;;;;;4367637;32;20195;-66
2021/11/25 10:25:49;;;;;;;36.27;19.17;;;4.60;99.90;;;;;;4350035;32;20470;-65
2021/11/25 10:28:32;;;;;;;35.03;18.20;;;4.60;99.90;;;;;;4349080;33;20238;-65
2021/11/25 10:31:11;;;;;;;34.00;18.77;;;4.60;99.90;;;;;;4349375;33;20168;-65
2021/11/25 10:34:10;;;;;;;36.73;19.63;;;4.60;99.90;;;;;;4348546;33;20270;-65
2021/11/25 10:41:55;;;;;;;36.43;18.70;;;4.70;99.90;;;;;;4348028;33;20211;-66
2021/11/25 10:44:27;;;;;;;36.10;18.67;;;4.80;99.90;;;;;;4347907;33;20623;-65
2021/11/25 10:47:07;;;;;;;38.43;19.90;;;4.80;99.90;;;;;;4348560;33;20537;-66
2021/11/25 10:49:50;;;;;;;35.27;18.50;;;4.80;99.90;;;;;;4388725;32;20532;-66
2021/11/25 10:52:39;;;;;;;35.87;19.50;;;4.80;99.90;;;;;;4422121;32;20487;-66
2021/11/25 10:55:13;;;;;;;40.33;19.67;;;4.80;99.90;;;;;;4422375;32;20193;-80
2021/11/25 10:57:47;;;;;;;38.77;19.30;;;4.90;99.90;;;;;;4436700;32;20208;-66
2021/11/25 11:00:33;;;;;;;37.43;19.67;;;5.00;99.90;;;;;;4437131;32;20178;-66
2021/11/25 11:03:23;;;;;;;37.77;19.73;;;5.00;99.90;;;;;;4437728;32;20182;-66
2021/11/25 11:05:57;;;;;;;39.80;19.93;;;5.00;99.90;;;;;;4437625;32;20174;-66
2021/11/25 11:08:26;;;;;;;39.93;19.73;;;5.00;99.90;;;;;;4438688;32;20249;-66
2021/11/25 11:11:04;;;;;;;40.10;20.67;;;5.00;99.90;;;;;;4438758;32;20212;-66
2021/11/25 11:13:47;;;;;;;40.93;20.10;;;5.10;99.90;;;;;;4436011;32;20489;-66
2021/11/25 11:16:29;;;;;;;37.00;20.23;;;5.10;99.90;;;;;;4430902;32;20195;-66
2021/11/25 11:19:01;;;;;;;41.73;19.70;;;5.10;99.90;;;;;;4437288;32;20244;-67
2021/11/25 11:21:41;;;;;;;40.17;20.17;;;5.20;99.90;;;;;;4438650;32;20142;-66
2021/11/25 11:24:12;;;;;;;39.30;20.00;;;5.30;99.90;;;;;;4437159;32;20528;-67
2021/11/25 11:26:42;;;;;;;38.13;19.63;;;5.60;99.90;;;;;;4437445;32;20190;-66
2021/11/25 11:29:11;;;;;;;35.97;19.70;;;6.00;99.90;;;;;;4437782;32;20168;-66
2021/11/25 11:31:39;;;;;;;38.50;19.67;;;6.70;99.90;;;;;;4437372;32;20185;-65
2021/11/25 11:34:09;;;;;;;36.23;19.07;;;7.60;99.90;;;;;;4438062;32;20237;-65
2021/11/25 11:36:42;;;;;;;37.00;19.67;;;8.40;99.90;;;;;;4437573;32;20406;-65
2021/11/25 11:39:12;;;;;;;36.23;18.40;;;9.40;99.90;;;;;;4437083;32;20421;-65
2021/11/25 11:41:46;;;;;;;36.57;19.27;;;9.80;99.90;;;;;;4437303;32;20247;-66
2021/11/25 11:44:19;;;;;;;32.80;18.30;;;10.30;99.90;;;;;;4437941;32;20245;-66
2021/11/25 11:46:47;;;;;;;32.83;18.50;;;11.00;99.90;;;;;;4438607;32;20190;-65
2021/11/25 11:49:15;;;;;;;36.33;19.97;;;10.80;99.90;;;;;;4438343;32;20182;-65
2021/11/25 11:51:57;;;;;;;34.90;19.20;;;10.90;99.90;;;;;;4438242;32;20209;-65
2021/11/25 11:54:25;;;;;;;34.63;19.10;;;10.60;99.90;;;;;;4437231;32;20247;-66
2021/11/25 11:56:52;;;;;;;35.07;19.53;;;9.90;99.90;;;;;;4425392;32;20212;-66
2021/11/25 11:59:34;;;;;;;35.90;19.30;;;9.20;99.90;;;;;;4437434;32;20167;-65
2021/11/25 12:02:01;;;;;;;39.03;20.23;;;8.80;99.90;;;;;;4437454;32;20188;-66
2021/11/25 12:04:40;;;;;;;34.93;19.07;;;8.50;99.90;;;;;;4439148;32;20200;-65
2021/11/25 12:07:25;;;;;;;36.03;19.20;;;8.10;99.90;;;;;;4439631;32;20183;-66
2021/11/25 12:09:53;;;;;;;39.17;19.43;;;7.80;99.90;;;;;;4439898;32;20246;-65
2021/11/25 12:12:21;;;;;;;37.40;19.53;;;7.60;99.90;;;;;;4440452;32;20195;-66
2021/11/25 12:14:53;;;;;;;40.30;20.70;;;7.60;99.90;;;;;;4439314;32;20222;-65
2021/11/25 12:17:28;;;;;;;38.77;20.23;;;7.20;99.90;;;;;;4440059;32;20178;-65
2021/11/25 12:20:14;;;;;;;39.10;19.33;;;7.00;99.90;;;;;;4440240;32;20200;-66
2021/11/25 12:22:49;;;;;;;37.50;19.90;;;6.80;99.90;;;;;;4439604;32;20183;-66
2021/11/25 12:25:40;;;;;;;38.40;21.10;;;6.80;99.90;;;;;;4440838;32;20622;-65
2021/11/25 12:28:42;;;;;;;38.13;20.80;;;6.70;99.90;;;;;;4440873;32;20148;-65
2021/11/25 12:33:50;;;;;;;37.20;20.00;;;6.60;99.90;;;;;;4365284;32;20179;-65
2021/11/25 12:36:32;;;;;;;39.67;20.77;;;6.60;99.90;;;;;;4365174;32;20206;-65
2021/11/25 12:39:00;;;;;;;39.07;20.23;;;6.60;99.90;;;;;;4366309;32;20490;-66
2021/11/25 12:41:27;;;;;;;40.47;21.30;;;6.60;99.90;;;;;;4365639;32;20258;-65
2021/11/25 12:43:56;;;;;;;41.17;20.43;;;6.50;99.90;;;;;;4365056;32;20203;-69
2021/11/25 12:46:23;;;;;;;40.00;20.60;;;6.60;99.90;;;;;;4366011;32;20225;-66
2021/11/25 12:48:54;;;;;;;38.10;20.43;;;6.90;99.90;;;;;;4366236;32;20268;-65
2021/11/25 12:51:24;;;;;;;38.83;21.20;;;7.30;99.90;;;;;;4364495;32;20184;-65
2021/11/25 12:53:55;;;;;;;39.37;20.80;;;7.50;99.90;;;;;;4364380;32;20186;-65
2021/11/25 12:56:22;;;;;;;38.10;19.83;;;7.50;99.90;;;;;;4365349;32;20208;-65
2021/11/25 12:58:51;;;;;;;34.30;19.63;;;7.30;99.90;;;;;;4360922;32;20189;-66
2021/11/25 13:01:28;;;;;;;40.23;20.83;;;7.30;99.90;;;;;;4360231;32;20186;-65